Time;durP1;ratioP1;P1;durP2;ratioP2;P2;SDS_P1;SDS_P2;PMS_P1;PMS_P2;Temp;Humidity;BMP_temperature;BMP_pressure;BME280_temperature;BME280_humidity;BME280_pressure;Samples;Min_cycle;Max_cycle;Signal;HPM_P1;HPM_P2
2022/11/03 00:01:41;;;;;;;16.30;2.33;;;13.30;97.90;;;;;;5042262;28;20365;-73
2022/11/03 00:04:10;;;;;;;12.18;2.80;;;13.30;97.90;;;;;;5042773;28;20413;-74
2022/11/03 00:06:37;;;;;;;12.13;2.70;;;13.30;98.00;;;;;;5042102;28;20078;-72
2022/11/03 00:09:06;;;;;;;12.25;2.90;;;13.20;98.10;;;;;;5041187;28;20033;-73
2022/11/03 00:11:34;;;;;;;15.35;2.88;;;13.20;98.10;;;;;;5042347;28;20449;-75
2022/11/03 00:14:02;;;;;;;13.10;2.78;;;13.30;98.40;;;;;;5040947;28;20056;-73
2022/11/03 00:16:31;;;;;;;20.02;2.80;;;13.20;98.10;;;;;;5042312;28;20029;-74
2022/11/03 00:18:56;;;;;;;11.57;3.05;;;13.20;98.30;;;;;;5043867;28;20029;-71
2022/11/03 00:21:22;;;;;;;15.95;2.78;;;13.20;98.30;;;;;;5039951;28;20021;-73
2022/11/03 00:23:48;;;;;;;12.00;2.30;;;13.20;98.30;;;;;;5043065;28;20279;-74
2022/11/03 00:26:21;;;;;;;9.52;2.67;;;13.20;98.40;;;;;;5042491;28;20029;-74
2022/11/03 00:28:52;;;;;;;18.27;2.75;;;13.20;98.40;;;;;;5043180;28;20060;-73
2022/11/03 00:31:25;;;;;;;22.27;3.78;;;13.20;98.30;;;;;;5041476;28;20024;-73
2022/11/03 00:33:52;;;;;;;15.93;3.08;;;13.20;98.30;;;;;;5056571;28;20033;-74
2022/11/03 00:36:20;;;;;;;14.50;3.22;;;13.10;98.30;;;;;;5043834;28;20325;-75
2022/11/03 00:38:46;;;;;;;16.33;2.88;;;13.20;98.30;;;;;;5041993;28;20033;-72
2022/11/03 00:41:12;;;;;;;13.02;2.70;;;13.10;98.40;;;;;;5040551;28;20116;-74
2022/11/03 00:43:44;;;;;;;13.15;3.13;;;13.10;98.40;;;;;;5040703;28;20052;-75
2022/11/03 00:46:12;;;;;;;11.25;2.90;;;13.20;98.40;;;;;;5041990;28;20029;-76
2022/11/03 00:48:38;;;;;;;10.02;2.33;;;13.10;98.40;;;;;;5039211;28;20426;-75
2022/11/03 00:51:10;;;;;;;11.63;2.50;;;13.10;98.50;;;;;;5042828;28;20021;-74
2022/11/03 00:53:50;;;;;;;11.02;2.80;;;13.00;98.60;;;;;;5039958;28;20025;-74
2022/11/03 00:56:21;;;;;;;8.45;2.40;;;13.00;98.60;;;;;;5042622;28;20035;-72
2022/11/03 00:58:47;;;;;;;14.45;2.45;;;13.00;98.70;;;;;;5042747;28;20047;-75
2022/11/03 01:01:25;;;;;;;11.77;2.85;;;13.00;98.60;;;;;;5045229;28;20437;-74
2022/11/03 01:06:51;;;;;;;12.63;2.80;;;13.00;98.80;;;;;;5042466;28;20067;-74
2022/11/03 01:09:21;;;;;;;8.73;1.80;;;13.00;98.90;;;;;;5048234;28;20056;-75
2022/11/03 01:11:56;;;;;;;9.40;2.35;;;12.90;98.90;;;;;;5040396;28;20096;-75
2022/11/03 01:14:23;;;;;;;15.52;2.95;;;12.90;98.90;;;;;;5046248;28;20037;-73
2022/11/03 01:16:51;;;;;;;15.88;2.65;;;12.90;99.00;;;;;;5040234;28;20037;-74
2022/11/03 01:19:17;;;;;;;9.73;2.70;;;12.90;99.00;;;;;;5043190;28;20056;-74
2022/11/03 01:21:45;;;;;;;12.65;2.40;;;12.90;99.10;;;;;;5040246;28;20536;-74
2022/11/03 01:24:13;;;;;;;16.17;2.72;;;13.00;99.10;;;;;;5037155;28;20031;-72
2022/11/03 01:26:41;;;;;;;11.10;2.42;;;12.90;99.10;;;;;;5040818;28;20033;-74
2022/11/03 01:29:09;;;;;;;9.35;2.28;;;12.90;99.10;;;;;;5039865;28;20068;-72
2022/11/03 01:31:35;;;;;;;8.95;2.33;;;12.90;99.20;;;;;;5045488;28;20024;-73
2022/11/03 01:34:04;;;;;;;10.32;2.22;;;12.90;99.20;;;;;;5043229;28;20040;-73
2022/11/03 01:36:29;;;;;;;17.55;2.85;;;12.90;99.20;;;;;;5058665;28;20018;-75
2022/11/03 01:38:57;;;;;;;9.93;2.42;;;13.00;99.30;;;;;;5040492;28;20040;-75
2022/11/03 01:41:27;;;;;;;11.95;2.35;;;13.00;99.30;;;;;;5037906;28;20032;-75
2022/11/03 01:44:07;;;;;;;13.00;2.80;;;12.90;99.70;;;;;;5049232;28;20146;-73
2022/11/03 01:47:04;;;;;;;6.03;1.92;;;12.90;99.30;;;;;;5041411;28;20052;-73
2022/11/03 01:50:02;;;;;;;14.48;2.30;;;12.90;99.40;;;;;;5035575;28;20095;-74
2022/11/03 01:52:32;;;;;;;16.17;2.58;;;12.90;99.40;;;;;;5042610;28;20116;-74
2022/11/03 01:55:03;;;;;;;12.10;2.63;;;12.90;99.50;;;;;;5042120;28;20091;-75
2022/11/03 01:57:36;;;;;;;15.00;2.22;;;12.90;99.60;;;;;;5038325;28;20117;-75
2022/11/03 02:00:03;;;;;;;11.68;2.80;;;12.90;99.60;;;;;;5041883;28;20029;-75
2022/11/03 02:02:29;;;;;;;10.65;2.33;;;12.90;99.70;;;;;;5042081;28;20063;-76
2022/11/03 02:04:58;;;;;;;18.20;2.63;;;12.90;99.80;;;;;;5039075;28;20401;-75
2022/11/03 02:07:37;;;;;;;15.70;2.40;;;12.90;99.90;;;;;;5039991;28;20034;-75
2022/11/03 02:10:07;;;;;;;10.35;2.50;;;12.90;99.90;;;;;;5042866;28;20100;-76
2022/11/03 02:12:36;;;;;;;15.85;2.67;;;12.90;99.90;;;;;;5040618;28;20316;-75
2022/11/03 02:15:07;;;;;;;14.68;2.28;;;12.90;99.90;;;;;;5039521;28;20025;-74
2022/11/03 02:17:36;;;;;;;8.30;2.33;;;12.80;99.90;;;;;;5044345;28;20037;-74
2022/11/03 02:20:05;;;;;;;13.70;2.30;;;12.90;99.90;;;;;;5045640;28;20049;-75
2022/11/03 02:22:56;;;;;;;16.00;2.58;;;12.90;99.90;;;;;;5057859;28;20018;-72
2022/11/03 02:25:40;;;;;;;14.70;2.40;;;12.80;99.90;;;;;;5046688;28;20021;-75
2022/11/03 02:28:09;;;;;;;10.63;2.63;;;12.80;99.90;;;;;;5043131;28;20021;-76
2022/11/03 02:30:47;;;;;;;15.38;2.65;;;12.90;99.90;;;;;;5041394;28;20028;-74
2022/11/03 02:33:57;;;;;;;12.23;2.53;;;12.90;99.90;;;;;;5074739;28;20471;-74
2022/11/03 02:36:47;;;;;;;15.00;2.75;;;12.90;99.90;;;;;;5052700;28;20442;-76
2022/11/03 02:39:27;;;;;;;12.23;2.20;;;12.90;99.90;;;;;;5044191;28;20442;-75
2022/11/03 02:41:55;;;;;;;12.80;2.83;;;12.90;99.90;;;;;;5045406;28;20009;-75
2022/11/03 02:44:24;;;;;;;17.55;2.60;;;12.90;99.90;;;;;;5076694;28;20055;-74
2022/11/03 02:46:59;;;;;;;9.38;2.90;;;12.90;99.90;;;;;;5046562;28;20025;-75
2022/11/03 02:49:25;;;;;;;15.05;2.72;;;12.90;99.90;;;;;;5046635;28;20346;-75
2022/11/03 02:52:01;;;;;;;12.05;3.10;;;12.90;99.90;;;;;;5048283;28;20037;-75
2022/11/03 02:54:39;;;;;;;10.75;2.67;;;12.80;99.90;;;;;;5046405;28;20516;-75
2022/11/03 02:57:07;;;;;;;12.32;2.85;;;12.80;99.90;;;;;;5048585;28;20033;-75
2022/11/03 03:00:14;;;;;;;9.75;2.65;;;12.80;99.90;;;;;;5045057;28;20112;-75
2022/11/03 03:03:02;;;;;;;10.02;2.60;;;12.80;99.90;;;;;;5059701;28;20025;-75
2022/11/03 03:05:33;;;;;;;14.25;2.78;;;12.80;99.90;;;;;;5047428;28;20029;-75
2022/11/03 03:08:04;;;;;;;10.15;3.08;;;12.80;99.90;;;;;;5044451;28;20142;-75
2022/11/03 03:10:42;;;;;;;21.13;3.15;;;12.80;99.90;;;;;;5060961;28;20029;-75
2022/11/03 03:13:13;;;;;;;5.70;2.20;;;12.80;99.90;;;;;;5041849;28;20021;-73
2022/11/03 03:15:55;;;;;;;21.02;2.70;;;12.80;99.90;;;;;;5042149;28;20122;-75
2022/11/03 03:18:44;;;;;;;10.65;2.38;;;12.90;99.90;;;;;;5043757;28;20413;-75
2022/11/03 03:21:14;;;;;;;11.18;2.80;;;12.80;99.90;;;;;;5044020;28;20018;-75
2022/11/03 03:23:49;;;;;;;11.45;2.70;;;12.80;99.90;;;;;;5042766;28;20017;-76
2022/11/03 03:26:32;;;;;;;8.13;2.40;;;12.80;99.90;;;;;;5059590;28;20022;-75
2022/11/03 03:29:19;;;;;;;13.15;2.88;;;12.90;99.90;;;;;;5041798;28;20037;-75
2022/11/03 03:31:50;;;;;;;11.35;2.67;;;12.80;99.90;;;;;;5044691;28;20033;-75
2022/11/03 03:34:22;;;;;;;14.27;2.72;;;12.80;99.90;;;;;;5041713;28;20094;-75
2022/11/03 03:36:51;;;;;;;13.38;3.22;;;12.80;99.90;;;;;;5040915;28;20547;-73
2022/11/03 03:39:21;;;;;;;12.10;2.80;;;12.80;99.90;;;;;;5042434;28;20452;-75
2022/11/03 03:41:48;;;;;;;16.95;2.63;;;12.90;99.90;;;;;;5068597;28;20042;-75
2022/11/03 03:44:16;;;;;;;13.63;3.20;;;12.90;99.90;;;;;;5045551;28;20124;-75
2022/11/03 03:46:46;;;;;;;16.38;2.83;;;12.90;99.90;;;;;;5046572;28;20202;-75
2022/11/03 03:49:13;;;;;;;15.43;3.25;;;12.90;99.90;;;;;;5039418;28;20111;-75
2022/11/03 03:51:41;;;;;;;16.02;3.13;;;12.90;99.90;;;;;;5050530;28;20032;-75
2022/11/03 03:54:07;;;;;;;12.65;3.15;;;12.90;99.90;;;;;;5048870;28;20033;-75
2022/11/03 03:56:47;;;;;;;17.17;3.08;;;12.90;99.90;;;;;;5045377;28;20024;-75
2022/11/03 03:59:13;;;;;;;13.23;3.03;;;12.90;99.90;;;;;;5076301;28;20029;-74
2022/11/03 04:01:41;;;;;;;12.27;3.05;;;12.90;99.90;;;;;;5045158;28;20033;-75
2022/11/03 04:04:07;;;;;;;13.50;2.45;;;12.80;99.90;;;;;;5039120;28;20052;-75
2022/11/03 04:06:35;;;;;;;15.75;3.20;;;12.90;99.90;;;;;;5042008;28;20010;-75
2022/11/03 04:09:01;;;;;;;11.90;3.28;;;12.90;99.90;;;;;;5049347;28;20021;-76
2022/11/03 04:22:28;;;;;;;13.88;3.58;;;12.80;99.90;;;;;;5040312;28;20044;-75
2022/11/03 04:24:57;;;;;;;20.02;3.50;;;12.80;99.90;;;;;;5040500;28;20143;-72
2022/11/03 04:27:31;;;;;;;15.50;3.28;;;12.70;99.90;;;;;;5041013;28;20400;-74
2022/11/03 04:30:08;;;;;;;21.98;3.33;;;12.80;99.90;;;;;;5047726;28;20420;-75
2022/11/03 04:32:35;;;;;;;11.43;3.13;;;12.90;99.90;;;;;;5046899;28;20028;-73
2022/11/03 04:35:25;;;;;;;14.20;3.83;;;12.80;99.90;;;;;;5039646;28;20366;-75
2022/11/03 04:37:57;;;;;;;11.43;2.22;;;12.90;99.90;;;;;;5040512;28;20071;-75
2022/11/03 04:40:26;;;;;;;16.25;3.35;;;12.80;99.90;;;;;;5070255;28;20029;-75
2022/11/03 04:42:54;;;;;;;15.10;3.25;;;12.90;99.90;;;;;;5048775;28;20021;-73
2022/11/03 04:45:31;;;;;;;12.68;2.92;;;12.80;99.90;;;;;;5046154;28;20149;-74
2022/11/03 04:48:00;;;;;;;29.92;3.60;;;12.90;99.90;;;;;;5042251;28;20022;-74
2022/11/03 04:50:29;;;;;;;16.23;2.92;;;12.90;99.90;;;;;;5072485;28;20470;-75
2022/11/03 04:52:56;;;;;;;10.50;2.75;;;13.00;99.90;;;;;;5037045;28;20032;-75
2022/11/03 04:55:22;;;;;;;12.23;2.90;;;13.00;99.90;;;;;;5043365;28;20029;-76
2022/11/03 04:57:53;;;;;;;14.05;3.42;;;13.00;99.90;;;;;;5038606;28;20494;-76
2022/11/03 05:00:19;;;;;;;12.75;2.65;;;13.00;99.90;;;;;;5038155;28;20044;-75
2022/11/03 05:02:48;;;;;;;13.07;2.78;;;13.00;99.90;;;;;;5039830;28;20075;-77
2022/11/03 05:05:24;;;;;;;14.38;2.90;;;13.10;99.90;;;;;;5042490;28;20210;-74
2022/11/03 05:07:57;;;;;;;18.92;3.22;;;13.10;99.90;;;;;;5037880;28;20044;-74
2022/11/03 05:10:27;;;;;;;;;;;13.10;99.90;;;;;;5044231;28;20025;-74
2022/11/03 05:12:54;;;;;;;15.68;2.85;;;13.10;99.90;;;;;;5046402;28;19916;-74
2022/11/03 05:15:33;;;;;;;14.98;3.15;;;13.10;99.90;;;;;;5048380;28;20360;-73
2022/11/03 05:18:08;;;;;;;12.20;2.80;;;13.10;99.90;;;;;;5042866;28;20041;-75
2022/11/03 05:20:44;;;;;;;17.23;3.58;;;13.10;99.90;;;;;;5044377;28;20043;-74
2022/11/03 05:23:11;;;;;;;14.45;2.80;;;13.10;99.90;;;;;;5037484;28;20049;-76
2022/11/03 05:25:42;;;;;;;12.57;2.28;;;13.10;99.90;;;;;;5046477;28;20048;-73
2022/11/03 05:28:32;;;;;;;11.18;2.90;;;13.10;99.90;;;;;;5040584;28;20048;-74
2022/11/03 05:31:00;;;;;;;9.25;2.83;;;13.20;99.90;;;;;;5039327;28;20044;-75
2022/11/03 05:33:26;;;;;;;8.93;2.72;;;13.20;99.90;;;;;;5041855;28;20075;-72
2022/11/03 05:35:52;;;;;;;15.60;3.33;;;13.20;99.90;;;;;;5038954;28;20030;-73
2022/11/03 05:38:21;;;;;;;15.90;2.55;;;13.20;99.90;;;;;;5039984;28;20102;-75
2022/11/03 05:40:51;;;;;;;20.02;3.35;;;13.20;99.90;;;;;;5038441;28;20477;-74
2022/11/03 05:43:20;;;;;;;13.18;3.00;;;13.20;99.90;;;;;;5044729;28;20025;-74
2022/11/03 05:45:53;;;;;;;19.25;3.75;;;13.20;99.90;;;;;;5045251;28;20032;-75
2022/11/03 05:48:19;;;;;;;25.67;3.60;;;13.20;99.90;;;;;;5044796;28;20111;-75
2022/11/03 05:50:45;;;;;;;11.48;3.28;;;13.20;99.90;;;;;;5041667;28;20112;-73
2022/11/03 05:53:29;;;;;;;13.68;2.97;;;13.20;99.90;;;;;;5047140;28;20463;-72
2022/11/03 05:55:58;;;;;;;13.02;3.03;;;13.20;99.90;;;;;;5054956;28;20022;-74
2022/11/03 05:58:38;;;;;;;11.88;2.80;;;13.20;99.90;;;;;;5058806;28;20435;-75
2022/11/03 06:01:12;;;;;;;17.20;2.95;;;13.20;99.90;;;;;;5044517;28;20124;-75
2022/11/03 06:03:38;;;;;;;12.07;3.35;;;13.20;99.90;;;;;;5040004;28;20033;-75
2022/11/03 06:06:19;;;;;;;13.85;3.03;;;13.20;99.90;;;;;;5040565;28;20414;-74
2022/11/03 06:08:46;;;;;;;13.43;2.60;;;13.20;99.90;;;;;;5042239;28;20067;-75
2022/11/03 06:11:44;;;;;;;10.80;3.13;;;13.20;99.90;;;;;;5040359;28;20026;-75
2022/11/03 06:14:20;;;;;;;13.27;3.17;;;13.20;99.90;;;;;;5021041;28;20025;-75
2022/11/03 06:16:58;;;;;;;15.55;3.17;;;13.20;99.90;;;;;;5043604;28;20033;-73
2022/11/03 06:19:48;;;;;;;11.73;2.70;;;13.20;99.90;;;;;;5045493;28;20183;-74
2022/11/03 06:22:25;;;;;;;21.05;3.22;;;13.20;99.90;;;;;;5079962;28;20025;-75
2022/11/03 06:24:58;;;;;;;9.35;3.10;;;13.20;99.90;;;;;;5045258;28;20067;-75
2022/11/03 06:27:29;;;;;;;12.70;2.88;;;13.20;99.90;;;;;;5076219;28;20148;-75
2022/11/03 06:30:19;;;;;;;11.77;2.63;;;13.20;99.90;;;;;;5044126;28;20048;-75
2022/11/03 06:32:47;;;;;;;16.58;3.00;;;13.20;99.90;;;;;;5074773;28;20033;-75
2022/11/03 06:35:13;;;;;;;20.02;3.35;;;13.20;99.90;;;;;;5042267;28;20029;-75
2022/11/03 06:37:40;;;;;;;11.02;2.83;;;13.30;99.90;;;;;;5046440;28;20035;-75
2022/11/03 06:40:09;;;;;;;18.58;3.30;;;13.30;99.90;;;;;;5044532;28;20031;-75
2022/11/03 06:42:35;;;;;;;19.20;2.80;;;13.20;99.90;;;;;;5048445;28;20083;-75
2022/11/03 06:45:09;;;;;;;17.77;3.28;;;13.30;99.90;;;;;;5040336;28;20083;-75
2022/11/03 06:47:38;;;;;;;11.18;2.58;;;13.30;99.90;;;;;;5047048;28;20029;-75
2022/11/03 06:50:26;;;;;;;17.25;3.00;;;13.30;99.90;;;;;;5045219;28;20017;-73
2022/11/03 06:52:57;;;;;;;20.38;3.20;;;13.30;99.90;;;;;;5042199;28;20041;-73
2022/11/03 06:55:28;;;;;;;16.27;3.97;;;13.30;99.90;;;;;;5037919;28;20349;-74
2022/11/03 06:57:59;;;;;;;13.90;2.72;;;13.50;99.90;;;;;;5047237;28;20462;-76
2022/11/03 07:00:29;;;;;;;19.15;2.88;;;13.50;99.90;;;;;;5051319;28;20028;-75
2022/11/03 07:03:20;;;;;;;18.02;3.35;;;13.40;99.90;;;;;;5042293;28;20053;-73
2022/11/03 07:05:46;;;;;;;12.18;2.90;;;13.40;99.90;;;;;;5043329;28;20434;-76
2022/11/03 07:08:23;;;;;;;11.65;2.78;;;13.50;99.90;;;;;;5047699;28;20692;-74
2022/11/03 07:11:18;;;;;;;13.48;2.58;;;13.50;99.90;;;;;;5043712;28;20092;-75
2022/11/03 07:13:52;;;;;;;19.60;2.78;;;13.50;99.90;;;;;;5038160;28;20072;-76
2022/11/03 07:16:37;;;;;;;11.18;2.33;;;13.60;99.90;;;;;;5045036;28;20112;-76
2022/11/03 07:19:20;;;;;;;16.25;3.00;;;13.60;99.90;;;;;;5058614;28;20032;-75
2022/11/03 07:22:01;;;;;;;16.65;2.67;;;13.60;99.90;;;;;;5042681;28;20022;-75
2022/11/03 07:24:35;;;;;;;12.63;2.90;;;13.60;99.90;;;;;;5044042;28;20049;-75
2022/11/03 07:27:14;;;;;;;8.82;2.80;;;13.70;99.90;;;;;;5042731;28;20112;-74
2022/11/03 07:29:40;;;;;;;15.77;3.03;;;13.70;99.90;;;;;;5043417;28;20043;-74
2022/11/03 07:32:33;;;;;;;12.30;2.92;;;13.80;99.90;;;;;;5042389;28;20744;-74
2022/11/03 07:35:17;;;;;;;11.15;3.20;;;13.80;99.90;;;;;;5061499;28;20040;-75
2022/11/03 07:37:48;;;;;;;20.48;3.72;;;13.80;99.90;;;;;;5058915;28;20041;-74
2022/11/03 07:40:18;;;;;;;12.57;2.75;;;13.80;99.90;;;;;;5044367;28;20032;-74
2022/11/03 07:42:43;;;;;;;19.02;3.58;;;13.90;99.90;;;;;;5050200;28;20339;-75
2022/11/03 07:45:36;;;;;;;15.70;3.55;;;13.90;99.90;;;;;;5040697;28;20037;-75
2022/11/03 07:48:18;;;;;;;21.20;3.53;;;13.90;99.90;;;;;;5073735;28;20013;-76
2022/11/03 07:50:44;;;;;;;20.43;3.70;;;14.00;99.90;;;;;;5074697;28;20029;-74
2022/11/03 07:53:18;;;;;;;11.57;3.42;;;14.00;99.90;;;;;;5043970;28;20022;-73
2022/11/03 07:55:45;;;;;;;13.07;3.45;;;14.00;99.90;;;;;;5046006;28;20029;-74
2022/11/03 07:58:24;;;;;;;16.50;4.25;;;14.10;99.90;;;;;;5045155;28;20032;-74
2022/11/03 08:00:56;;;;;;;13.57;3.45;;;14.20;99.90;;;;;;5048754;28;20025;-75
2022/11/03 08:03:47;;;;;;;13.07;3.80;;;14.20;99.90;;;;;;5041332;28;20339;-74
2022/11/03 08:06:15;;;;;;;15.77;3.80;;;14.20;99.90;;;;;;5044771;28;20060;-75
2022/11/03 08:08:41;;;;;;;7.95;2.83;;;14.20;99.90;;;;;;5045632;28;20082;-75
2022/11/03 08:11:06;;;;;;;16.42;3.45;;;14.30;99.90;;;;;;5049946;28;20026;-74
2022/11/03 08:13:32;;;;;;;15.13;3.25;;;14.40;99.90;;;;;;5049832;28;20021;-71
2022/11/03 08:16:00;;;;;;;8.15;2.88;;;14.40;99.90;;;;;;5044963;28;20029;-74
2022/11/03 08:18:28;;;;;;;14.57;3.15;;;14.40;99.90;;;;;;5042633;28;20116;-74
2022/11/03 08:20:54;;;;;;;14.57;2.70;;;14.50;99.90;;;;;;5040988;28;20327;-74
2022/11/03 08:23:20;;;;;;;12.60;2.92;;;14.50;99.90;;;;;;5038457;28;20032;-74
2022/11/03 08:25:45;;;;;;;11.82;2.90;;;14.60;99.90;;;;;;5042140;28;20031;-74
2022/11/03 08:28:11;;;;;;;14.90;2.72;;;14.70;99.90;;;;;;5078613;28;20017;-72
2022/11/03 08:30:37;;;;;;;12.32;2.40;;;14.80;99.90;;;;;;5045389;28;20159;-74
2022/11/03 08:33:03;;;;;;;16.15;2.88;;;14.90;99.90;;;;;;5038852;28;20017;-74
2022/11/03 08:35:31;;;;;;;10.95;2.70;;;14.90;99.90;;;;;;5044615;28;20021;-75
2022/11/03 08:37:56;;;;;;;10.30;2.65;;;15.10;99.90;;;;;;5042608;28;20100;-75
2022/11/03 08:40:22;;;;;;;12.35;2.83;;;15.20;99.90;;;;;;5056420;28;20137;-71
2022/11/03 08:42:49;;;;;;;13.75;2.95;;;15.20;99.90;;;;;;5041134;28;20462;-76
2022/11/03 08:45:15;;;;;;;19.55;2.50;;;15.20;99.90;;;;;;5046447;28;20494;-74
2022/11/03 08:47:41;;;;;;;13.98;3.33;;;15.20;99.90;;;;;;5041690;28;20051;-75
2022/11/03 08:50:07;;;;;;;11.85;2.53;;;15.30;99.90;;;;;;5042680;28;20601;-74
2022/11/03 08:52:32;;;;;;;14.95;3.28;;;15.30;99.90;;;;;;5043663;28;20025;-74
2022/11/03 08:55:00;;;;;;;13.77;3.47;;;15.30;99.90;;;;;;5038902;28;20048;-74
2022/11/03 08:57:26;;;;;;;17.05;3.50;;;15.30;99.90;;;;;;5038243;28;20074;-74
2022/11/03 08:59:51;;;;;;;7.65;2.95;;;15.30;99.90;;;;;;5039070;28;20045;-74
2022/11/03 09:02:18;;;;;;;10.90;2.92;;;15.20;99.90;;;;;;5041345;28;20030;-73
2022/11/03 09:04:46;;;;;;;12.75;2.88;;;15.30;99.90;;;;;;5038415;28;20082;-74
2022/11/03 09:07:11;;;;;;;11.13;2.63;;;15.30;99.90;;;;;;5044204;28;20033;-76
2022/11/03 09:09:37;;;;;;;12.48;2.90;;;15.30;99.90;;;;;;5042475;28;20029;-75
2022/11/03 09:12:03;;;;;;;14.50;3.03;;;15.30;99.90;;;;;;5047292;28;20029;-75
2022/11/03 09:14:28;;;;;;;11.73;3.13;;;15.30;99.90;;;;;;5043907;28;20040;-76
2022/11/03 09:16:54;;;;;;;15.35;3.10;;;15.30;99.90;;;;;;5046759;28;20083;-75
2022/11/03 09:19:19;;;;;;;12.45;3.15;;;15.30;99.90;;;;;;5043280;28;20021;-75
2022/11/03 09:21:45;;;;;;;17.92;3.95;;;15.30;99.90;;;;;;5042940;28;20426;-75
2022/11/03 09:24:11;;;;;;;10.43;2.83;;;15.30;99.90;;;;;;5045972;28;20473;-75
2022/11/03 09:26:37;;;;;;;15.57;3.28;;;15.30;99.90;;;;;;5040282;28;20079;-75
2022/11/03 09:29:03;;;;;;;20.75;2.92;;;15.30;99.90;;;;;;5048707;28;20025;-75
2022/11/03 09:31:28;;;;;;;10.15;2.65;;;15.40;99.90;;;;;;5040896;28;20079;-76
2022/11/03 09:33:54;;;;;;;14.13;3.63;;;15.40;99.90;;;;;;5044459;28;20396;-76
2022/11/03 09:36:20;;;;;;;16.40;3.25;;;15.50;99.90;;;;;;5044284;28;20064;-75
2022/11/03 09:38:45;;;;;;;13.65;2.53;;;15.50;99.90;;;;;;5073649;28;20112;-73
2022/11/03 09:41:16;;;;;;;9.95;3.40;;;15.50;99.90;;;;;;5042324;28;20104;-74
2022/11/03 09:43:46;;;;;;;11.57;3.08;;;15.70;99.90;;;;;;5038142;28;20171;-73
2022/11/03 09:46:15;;;;;;;15.90;3.35;;;15.70;99.90;;;;;;5038099;28;20025;-73
2022/11/03 09:48:41;;;;;;;5.72;2.45;;;15.80;99.90;;;;;;5042615;28;20044;-75
2022/11/03 09:51:12;;;;;;;15.73;2.72;;;16.00;99.70;;;;;;5040359;28;20029;-72
2022/11/03 09:53:39;;;;;;;13.93;3.50;;;16.00;99.80;;;;;;5041882;28;20053;-76
2022/11/03 09:56:05;;;;;;;11.48;3.00;;;16.10;99.00;;;;;;5039649;28;20049;-74
2022/11/03 09:58:32;;;;;;;11.48;2.78;;;16.20;98.80;;;;;;5040795;28;20027;-74
2022/11/03 10:01:00;;;;;;;10.98;2.35;;;16.40;98.70;;;;;;5046520;28;20144;-75
2022/11/03 10:03:28;;;;;;;21.80;3.60;;;16.40;98.30;;;;;;5069583;28;20035;-75
2022/11/03 10:05:54;;;;;;;14.73;3.13;;;16.40;98.60;;;;;;5035019;28;20056;-75
2022/11/03 10:08:25;;;;;;;11.70;2.92;;;16.40;98.20;;;;;;5045173;28;20052;-71
2022/11/03 10:10:51;;;;;;;11.65;3.13;;;16.40;97.90;;;;;;5047064;28;20112;-75
2022/11/03 10:13:55;;;;;;;14.95;3.42;;;16.30;98.00;;;;;;5045205;28;20304;-75
2022/11/03 10:16:23;;;;;;;14.93;3.83;;;16.30;98.60;;;;;;5042033;28;20013;-75
2022/11/03 10:18:52;;;;;;;17.48;4.28;;;16.20;98.10;;;;;;5044632;28;20087;-74
2022/11/03 10:21:30;;;;;;;15.93;3.83;;;16.30;98.20;;;;;;5038619;28;20132;-76
2022/11/03 10:23:55;;;;;;;13.93;3.53;;;16.30;98.10;;;;;;5044589;28;20033;-75
2022/11/03 10:26:21;;;;;;;16.83;3.53;;;16.30;98.00;;;;;;5042319;28;20029;-75
2022/11/03 10:29:05;;;;;;;15.55;3.72;;;16.30;97.90;;;;;;5038904;28;20124;-71
2022/11/03 10:31:37;;;;;;;16.77;4.03;;;16.20;97.90;;;;;;5048009;28;20030;-73
2022/11/03 10:34:05;;;;;;;17.65;4.50;;;16.30;98.30;;;;;;5038239;28;20045;-75
2022/11/03 10:36:33;;;;;;;20.05;4.25;;;16.30;97.80;;;;;;5039639;28;20055;-73
2022/11/03 10:39:19;;;;;;;15.27;4.63;;;16.30;97.80;;;;;;5040257;28;20029;-73
2022/11/03 10:41:58;;;;;;;18.50;4.32;;;16.40;97.90;;;;;;5045858;28;20048;-74
2022/11/03 10:44:27;;;;;;;16.27;4.65;;;16.40;97.40;;;;;;5043960;28;20030;-73
2022/11/03 10:47:01;;;;;;;16.58;4.18;;;16.50;97.70;;;;;;5044723;28;20025;-75
2022/11/03 10:49:37;;;;;;;19.80;4.30;;;16.60;97.50;;;;;;5046399;28;20024;-75
2022/11/03 10:52:15;;;;;;;20.83;5.63;;;16.50;97.50;;;;;;5045374;28;20438;-75
2022/11/03 10:54:41;;;;;;;15.55;4.57;;;16.50;97.60;;;;;;5061399;28;20025;-75
2022/11/03 10:57:06;;;;;;;12.07;3.22;;;16.60;97.50;;;;;;5045034;28;20025;-74
2022/11/03 10:59:35;;;;;;;10.82;2.65;;;16.60;97.70;;;;;;5042965;28;20057;-75
2022/11/03 11:02:21;;;;;;;9.45;3.15;;;16.50;97.50;;;;;;5041572;28;20021;-73
2022/11/03 11:05:00;;;;;;;11.70;3.55;;;16.40;97.40;;;;;;5048394;28;20450;-75
2022/11/03 11:07:37;;;;;;;11.80;3.08;;;16.50;97.80;;;;;;5040588;28;20026;-74
2022/11/03 11:10:09;;;;;;;9.85;2.80;;;16.40;97.50;;;;;;5036872;28;20045;-75
2022/11/03 11:12:37;;;;;;;14.45;3.00;;;16.40;97.40;;;;;;5049044;28;20401;-73
2022/11/03 11:15:35;;;;;;;12.50;3.25;;;16.40;97.10;;;;;;5041586;28;20060;-72
2022/11/03 11:18:01;;;;;;;9.82;2.55;;;16.50;97.30;;;;;;5067426;28;20048;-74
2022/11/03 11:20:40;;;;;;;11.60;3.33;;;16.50;97.10;;;;;;5044320;28;20037;-74
2022/11/03 11:23:28;;;;;;;8.00;2.50;;;16.60;96.90;;;;;;5073686;28;20145;-73
2022/11/03 11:26:09;;;;;;;11.05;2.10;;;16.70;96.30;;;;;;5051050;28;20041;-75
2022/11/03 11:28:46;;;;;;;7.43;2.30;;;16.80;96.00;;;;;;5043359;28;20037;-74
2022/11/03 11:31:26;;;;;;;9.43;2.72;;;17.00;95.70;;;;;;5041544;28;20413;-75
2022/11/03 11:34:20;;;;;;;12.70;2.45;;;17.20;95.50;;;;;;5043194;28;20026;-74
2022/11/03 11:36:54;;;;;;;7.53;2.33;;;17.30;94.70;;;;;;5040588;28;20025;-74
2022/11/03 11:39:29;;;;;;;13.20;2.67;;;17.40;94.50;;;;;;5045633;28;20025;-74
2022/11/03 11:42:16;;;;;;;12.25;2.67;;;17.50;94.40;;;;;;5048095;28;20021;-75
2022/11/03 11:44:44;;;;;;;8.25;1.70;;;17.60;94.10;;;;;;5056243;28;20071;-75
2022/11/03 11:47:46;;;;;;;8.70;2.15;;;17.60;93.80;;;;;;5049496;28;20446;-75
2022/11/03 11:50:20;;;;;;;9.68;1.85;;;17.70;93.50;;;;;;5080027;28;20626;-75
2022/11/03 11:53:12;;;;;;;8.00;2.22;;;17.70;92.80;;;;;;5044073;28;20025;-74
2022/11/03 11:55:50;;;;;;;8.63;2.00;;;17.80;92.60;;;;;;5040608;28;20042;-73
2022/11/03 11:58:34;;;;;;;7.53;2.22;;;17.90;92.50;;;;;;5051083;28;20067;-75
2022/11/03 12:01:18;;;;;;;8.55;2.20;;;17.90;92.30;;;;;;5040630;28;20040;-74
2022/11/03 12:03:45;;;;;;;7.60;2.13;;;17.90;91.70;;;;;;5036961;28;20112;-70
2022/11/03 12:06:13;;;;;;;6.25;1.90;;;17.80;91.90;;;;;;5039954;28;20056;-74
2022/11/03 12:08:40;;;;;;;6.80;2.28;;;17.90;91.30;;;;;;5040955;28;20024;-73
2022/11/03 12:11:08;;;;;;;7.95;1.95;;;17.80;91.00;;;;;;5045226;28;20051;-70
2022/11/03 12:13:49;;;;;;;8.98;2.10;;;17.80;91.20;;;;;;5043103;28;20030;-73
2022/11/03 12:16:32;;;;;;;6.53;1.90;;;17.70;91.50;;;;;;5040106;28;20075;-71
2022/11/03 12:19:36;;;;;;;7.13;1.48;;;17.60;91.30;;;;;;5041128;28;20323;-74
2022/11/03 12:22:04;;;;;;;11.15;1.85;;;17.60;91.60;;;;;;5044196;28;20053;-74
2022/11/03 12:24:30;;;;;;;6.88;1.60;;;17.60;91.80;;;;;;5076523;28;20025;-73
2022/11/03 12:26:56;;;;;;;10.45;2.10;;;17.50;91.50;;;;;;5040779;28;20027;-71
2022/11/03 12:29:22;;;;;;;4.10;1.60;;;17.50;91.50;;;;;;5039675;28;20064;-71
2022/11/03 12:31:48;;;;;;;8.20;1.80;;;17.40;91.60;;;;;;5039486;28;20030;-73
2022/11/03 12:34:15;;;;;;;9.15;1.73;;;17.50;91.80;;;;;;5043477;28;20068;-74
2022/11/03 12:36:41;;;;;;;5.68;1.70;;;17.60;91.70;;;;;;5048586;28;20033;-73
2022/11/03 12:39:07;;;;;;;9.98;1.60;;;17.50;91.50;;;;;;5039365;28;20521;-73
2022/11/03 12:41:32;;;;;;;8.88;1.50;;;17.40;91.70;;;;;;5041273;28;20101;-74
2022/11/03 12:43:58;;;;;;;6.05;2.22;;;17.50;91.70;;;;;;5037100;28;20104;-76
2022/11/03 12:46:24;;;;;;;8.73;1.85;;;17.50;91.70;;;;;;5039837;28;20069;-74
2022/11/03 12:48:49;;;;;;;8.00;1.83;;;17.60;91.60;;;;;;5040962;28;20616;-74
2022/11/03 12:51:16;;;;;;;10.65;1.73;;;17.60;91.60;;;;;;5046019;28;20755;-74
2022/11/03 12:53:44;;;;;;;8.65;1.58;;;17.70;91.60;;;;;;5047563;28;20470;-74
2022/11/03 12:56:11;;;;;;;8.23;1.60;;;17.80;91.40;;;;;;5038978;28;20581;-71
2022/11/03 12:58:37;;;;;;;5.97;1.38;;;18.00;91.20;;;;;;5040904;28;20029;-71
2022/11/03 13:01:04;;;;;;;4.43;1.60;;;17.80;90.90;;;;;;5037485;28;20040;-73
2022/11/03 13:03:31;;;;;;;7.28;2.00;;;17.80;91.40;;;;;;5040372;28;20468;-75
2022/11/03 13:06:01;;;;;;;4.93;1.65;;;17.60;91.30;;;;;;5039068;28;20029;-75
2022/11/03 13:08:27;;;;;;;5.63;1.58;;;17.50;91.70;;;;;;5040494;28;20017;-74
2022/11/03 13:10:52;;;;;;;4.50;1.30;;;17.40;92.30;;;;;;5075690;28;20024;-72
2022/11/03 13:13:18;;;;;;;7.18;1.60;;;17.40;92.10;;;;;;5041243;28;20017;-71
2022/11/03 13:15:46;;;;;;;8.73;1.42;;;17.30;92.10;;;;;;5047067;28;20398;-74
2022/11/03 13:18:12;;;;;;;7.30;1.50;;;17.30;92.10;;;;;;5039205;28;20029;-74